createdAt,value
2023-03-26T00:01:24.515Z,0.80
2023-03-26T00:03:58.076Z,1.60
2023-03-26T00:06:37.110Z,2.03
2023-03-26T00:09:04.930Z,1.20
2023-03-26T00:11:31.941Z,1.05
2023-03-26T00:13:59.139Z,0.95
2023-03-26T00:16:31.353Z,0.98
2023-03-26T00:18:58.970Z,1.25
2023-03-26T00:21:28.227Z,1.00
2023-03-26T00:23:58.623Z,1.30
2023-03-26T00:26:27.027Z,1.38
2023-03-26T00:28:54.662Z,1.45
2023-03-26T00:31:22.244Z,1.60
2023-03-26T00:33:54.355Z,0.82
2023-03-26T00:36:22.616Z,1.30
2023-03-26T00:38:49.396Z,1.33
2023-03-26T00:41:22.687Z,1.70
2023-03-26T00:43:52.089Z,1.00
2023-03-26T00:46:19.449Z,1.60
2023-03-26T00:48:47.172Z,1.25
2023-03-26T00:51:16.950Z,1.27
2023-03-26T00:53:46.516Z,1.88
2023-03-26T00:56:13.572Z,4.88
2023-03-26T00:58:40.912Z,2.42
2023-03-26T01:01:13.982Z,1.92
2023-03-26T01:03:50.186Z,2.08
2023-03-26T01:06:32.968Z,1.40
2023-03-26T01:09:09.860Z,2.08
2023-03-26T01:11:36.699Z,1.33
2023-03-26T01:14:11.976Z,1.42
2023-03-26T01:17:00.478Z,1.27
2023-03-26T01:20:07.245Z,1.73
2023-03-26T01:22:36.781Z,0.88
2023-03-26T01:25:04.032Z,1.48
2023-03-26T01:27:50.382Z,1.80
2023-03-26T01:30:27.356Z,1.70
2023-03-26T01:33:17.650Z,1.38
2023-03-26T01:35:58.373Z,1.35
2023-03-26T01:38:46.987Z,1.55
2023-03-26T01:41:32.084Z,4.18
2023-03-26T01:44:11.984Z,3.00
2023-03-26T01:46:39.517Z,2.20
2023-03-26T01:49:13.258Z,2.30
2023-03-26T01:51:42.639Z,2.33
2023-03-26T01:54:17.067Z,2.33
2023-03-26T01:57:05.967Z,3.15
2023-03-26T02:00:07.270Z,2.78
2023-03-26T02:02:55.081Z,2.75
2023-03-26T02:05:53.161Z,2.42
2023-03-26T02:08:31.690Z,2.63
2023-03-26T02:11:02.450Z,2.22
2023-03-26T02:13:29.551Z,2.15
2023-03-26T02:16:06.007Z,2.08
2023-03-26T02:18:41.866Z,3.80
2023-03-26T02:21:12.527Z,3.00
2023-03-26T02:23:46.934Z,3.13
2023-03-26T02:26:16.767Z,2.15
2023-03-26T02:28:54.775Z,2.55
2023-03-26T02:31:22.157Z,2.75
2023-03-26T02:33:49.676Z,2.92
2023-03-26T02:36:18.597Z,2.58
2023-03-26T02:38:45.891Z,2.17
2023-03-26T02:41:14.877Z,3.33
2023-03-26T02:43:57.297Z,2.78
2023-03-26T02:46:36.009Z,2.88
2023-03-26T02:49:35.538Z,2.42
2023-03-26T02:52:06.842Z,2.40
2023-03-26T02:54:35.612Z,2.17
2023-03-26T02:57:16.444Z,1.95
2023-03-26T03:00:05.956Z,2.13
2023-03-26T03:02:38.857Z,2.50
2023-03-26T03:05:29.012Z,2.58
2023-03-26T03:08:22.989Z,2.50
2023-03-26T03:11:11.945Z,2.38
2023-03-26T03:13:46.850Z,2.00
2023-03-26T03:16:26.561Z,2.25
2023-03-26T03:18:57.820Z,2.53
2023-03-26T03:21:29.368Z,2.22
2023-03-26T03:24:00.098Z,2.28
2023-03-26T03:26:30.180Z,2.70
2023-03-26T03:29:01.715Z,2.22
2023-03-26T03:31:29.039Z,2.60
2023-03-26T03:34:01.896Z,2.40
2023-03-26T03:36:33.482Z,3.45
2023-03-26T03:39:09.063Z,1.95
2023-03-26T03:41:36.624Z,2.40
2023-03-26T03:44:06.451Z,2.40
2023-03-26T03:46:34.221Z,3.47
2023-03-26T03:49:01.133Z,2.38
2023-03-26T03:51:35.789Z,2.90
2023-03-26T03:54:05.683Z,2.58
2023-03-26T03:56:52.400Z,2.85
2023-03-26T03:59:47.440Z,3.25
2023-03-26T04:02:26.791Z,3.25
2023-03-26T04:04:58.574Z,2.92
2023-03-26T04:07:26.339Z,2.75
2023-03-26T04:10:08.066Z,3.60
2023-03-26T04:12:53.490Z,4.43
2023-03-26T04:15:32.536Z,3.28
2023-03-26T04:17:59.677Z,4.18
2023-03-26T04:20:27.318Z,4.03
2023-03-26T04:22:54.626Z,3.80
2023-03-26T04:25:30.548Z,3.22
2023-03-26T04:28:08.680Z,3.47
2023-03-26T04:30:48.963Z,3.58
2023-03-26T04:33:34.936Z,3.38
2023-03-26T04:36:03.559Z,3.17
2023-03-26T04:38:45.411Z,3.58
2023-03-26T04:41:15.102Z,3.60
2023-03-26T04:43:54.758Z,4.10
2023-03-26T04:47:00.298Z,4.30
2023-03-26T04:49:33.431Z,4.50
2023-03-26T04:52:00.495Z,4.30
2023-03-26T04:54:47.441Z,4.05
2023-03-26T04:57:26.184Z,4.25
2023-03-26T05:00:22.628Z,5.10
2023-03-26T05:02:56.328Z,5.75
2023-03-26T05:05:25.212Z,4.75
2023-03-26T05:07:52.959Z,3.95
2023-03-26T05:10:21.533Z,4.88
2023-03-26T05:12:57.215Z,3.83
2023-03-26T05:15:29.912Z,4.50
2023-03-26T05:17:57.361Z,3.75
2023-03-26T05:20:36.493Z,4.72
2023-03-26T05:23:07.704Z,5.10
2023-03-26T05:25:41.355Z,4.82
2023-03-26T05:28:16.060Z,3.55
2023-03-26T05:31:09.984Z,4.20
2023-03-26T05:33:39.941Z,3.40
2023-03-26T05:36:13.411Z,3.08
2023-03-26T05:38:47.626Z,4.05
2023-03-26T05:41:19.224Z,3.38
2023-03-26T05:43:48.250Z,3.10
2023-03-26T05:46:20.468Z,3.05
2023-03-26T05:48:47.362Z,3.45
2023-03-26T05:51:16.109Z,3.28
2023-03-26T05:53:50.474Z,1.85
2023-03-26T05:56:36.324Z,2.65
2023-03-26T05:59:32.923Z,2.33
2023-03-26T06:02:18.177Z,2.17
2023-03-26T06:05:04.555Z,2.13
2023-03-26T06:07:57.369Z,2.42
2023-03-26T06:10:30.487Z,2.28
2023-03-26T06:12:57.366Z,2.53
2023-03-26T06:15:28.536Z,1.90
2023-03-26T06:18:02.405Z,2.17
2023-03-26T06:20:52.975Z,2.67
2023-03-26T06:23:27.756Z,2.50
2023-03-26T06:26:12.011Z,3.03
2023-03-26T06:28:56.847Z,3.28
2023-03-26T06:31:35.456Z,3.60
2023-03-26T06:34:23.992Z,4.65
2023-03-26T06:36:52.996Z,2.80
2023-03-26T06:39:21.715Z,2.30
2023-03-26T06:42:06.837Z,2.20
2023-03-26T06:44:51.561Z,2.15
2023-03-26T06:47:38.622Z,2.25
2023-03-26T06:50:23.850Z,2.35
2023-03-26T06:53:26.427Z,1.88
2023-03-26T06:55:58.771Z,1.98
2023-03-26T06:58:43.590Z,1.92
2023-03-26T07:01:29.043Z,1.88
2023-03-26T07:04:31.260Z,2.05
2023-03-26T07:07:20.477Z,1.92
2023-03-26T07:10:06.484Z,2.53
2023-03-26T07:12:42.663Z,2.22
2023-03-26T07:15:30.034Z,2.50
2023-03-26T07:18:29.206Z,2.85
2023-03-26T07:20:56.810Z,1.55
2023-03-26T07:23:27.652Z,1.90
2023-03-26T07:26:39.549Z,1.63
2023-03-26T07:32:37.428Z,1.88
2023-03-26T07:36:18.360Z,1.50
2023-03-26T07:39:34.419Z,1.42
2023-03-26T07:43:03.557Z,1.63
2023-03-26T07:46:03.242Z,1.83
2023-03-26T07:49:00.241Z,2.22
2023-03-26T07:51:35.446Z,1.50
2023-03-26T07:54:25.566Z,1.80
2023-03-26T07:57:19.943Z,1.70
2023-03-26T08:00:11.234Z,2.13
2023-03-26T08:03:06.400Z,2.35
2023-03-26T08:05:57.977Z,1.38
2023-03-26T08:08:39.325Z,1.75
2023-03-26T08:11:48.122Z,2.08
2023-03-26T08:14:33.780Z,2.20
2023-03-26T08:17:36.188Z,1.73
2023-03-26T08:20:18.656Z,1.95
2023-03-26T08:22:52.355Z,1.48
2023-03-26T08:25:34.818Z,1.38
2023-03-26T08:28:28.234Z,1.55
2023-03-26T08:30:55.332Z,2.28
2023-03-26T08:33:25.933Z,1.10
2023-03-26T08:35:57.305Z,2.33
2023-03-26T08:38:24.159Z,2.08
2023-03-26T08:41:12.694Z,1.45
2023-03-26T08:43:58.302Z,2.00
2023-03-26T08:46:25.262Z,1.63
2023-03-26T08:49:13.554Z,1.25
2023-03-26T08:52:01.072Z,1.80
2023-03-26T08:54:30.847Z,0.93
2023-03-26T08:57:31.253Z,1.40
2023-03-26T09:00:26.711Z,1.20
2023-03-26T09:03:13.427Z,1.10
2023-03-26T09:06:11.643Z,2.05
2023-03-26T09:09:19.308Z,1.75
2023-03-26T09:14:53.480Z,2.05
2023-03-26T09:17:52.751Z,1.67
2023-03-26T09:20:38.336Z,1.10
2023-03-26T09:23:24.303Z,1.95
2023-03-26T09:26:17.853Z,0.80
2023-03-26T09:29:16.864Z,1.67
2023-03-26T09:32:22.832Z,1.75
2023-03-26T09:35:15.537Z,1.67
2023-03-26T09:38:34.405Z,2.13
2023-03-26T09:41:17.928Z,1.83
2023-03-26T09:43:44.843Z,0.82
2023-03-26T09:46:35.010Z,2.17
2023-03-26T09:49:22.938Z,1.60
2023-03-26T09:51:55.761Z,1.10
2023-03-26T09:54:34.834Z,2.13
2023-03-26T09:57:37.400Z,1.85
2023-03-26T10:00:19.006Z,2.10
2023-03-26T10:03:04.540Z,1.67
2023-03-26T10:05:55.058Z,1.80
2023-03-26T10:08:47.925Z,1.42
2023-03-26T10:11:38.172Z,1.67
2023-03-26T10:14:32.605Z,3.33
2023-03-26T10:17:29.658Z,1.35
2023-03-26T10:20:18.872Z,2.03
2023-03-26T10:23:03.993Z,0.65
2023-03-26T10:26:03.007Z,1.30
2023-03-26T10:31:47.499Z,1.08
2023-03-26T10:34:29.765Z,1.88
2023-03-26T10:37:29.172Z,1.38
2023-03-26T10:40:21.070Z,1.67
2023-03-26T10:43:16.633Z,1.65
2023-03-26T10:45:55.148Z,1.25
2023-03-26T10:48:37.043Z,1.27
2023-03-26T10:51:09.858Z,1.52
2023-03-26T10:53:43.869Z,1.35
2023-03-26T10:56:27.587Z,1.20
2023-03-26T10:58:57.005Z,1.25
2023-03-26T11:01:36.211Z,1.23
2023-03-26T11:04:45.090Z,1.27
2023-03-26T11:08:00.756Z,1.42
2023-03-26T11:11:05.691Z,1.65
2023-03-26T11:13:44.417Z,1.30
2023-03-26T11:16:31.087Z,1.35
2023-03-26T11:19:27.436Z,1.30
2023-03-26T11:22:02.887Z,0.95
2023-03-26T11:24:51.353Z,1.65
2023-03-26T11:27:40.299Z,1.83
2023-03-26T11:30:35.517Z,1.08
2023-03-26T11:33:06.587Z,1.17
2023-03-26T11:35:46.596Z,1.17
2023-03-26T11:38:19.915Z,1.80
2023-03-26T11:40:51.148Z,1.27
2023-03-26T11:43:49.769Z,1.75
2023-03-26T11:46:20.574Z,1.35
2023-03-26T11:48:52.722Z,1.30
2023-03-26T11:51:23.709Z,1.98
2023-03-26T11:53:50.508Z,1.40
2023-03-26T11:57:04.733Z,0.90
2023-03-26T11:59:57.117Z,1.02
2023-03-26T12:02:32.764Z,1.60
2023-03-26T12:05:24.982Z,1.10
2023-03-26T12:07:55.992Z,1.08
2023-03-26T12:10:42.965Z,1.10
2023-03-26T12:13:21.574Z,1.35
2023-03-26T12:15:48.731Z,1.05
2023-03-26T12:18:27.558Z,0.90
2023-03-26T12:21:23.360Z,1.00
2023-03-26T12:26:46.378Z,1.13
2023-03-26T12:32:04.462Z,1.33
2023-03-26T12:37:05.418Z,1.25
2023-03-26T12:40:08.759Z,0.52
2023-03-26T12:44:46.038Z,0.80
2023-03-26T12:45:24.155Z,1.63
2023-03-26T12:47:59.071Z,0.90
2023-03-26T12:50:45.865Z,0.95
2023-03-26T12:53:39.789Z,1.15
2023-03-26T12:56:09.611Z,1.58
2023-03-26T12:59:35.247Z,0.88
2023-03-26T13:02:09.160Z,1.00
2023-03-26T13:05:06.187Z,0.80
2023-03-26T13:08:15.489Z,1.48
2023-03-26T13:11:03.311Z,1.30
2023-03-26T13:14:08.558Z,1.17
2023-03-26T13:16:43.067Z,0.93
2023-03-26T13:19:23.693Z,0.80
2023-03-26T13:22:02.666Z,2.03
2023-03-26T13:25:22.398Z,1.05
2023-03-26T13:28:03.541Z,0.60
2023-03-26T13:30:38.182Z,0.85
2023-03-26T13:33:23.450Z,1.00
2023-03-26T13:36:14.352Z,1.38
2023-03-26T13:42:04.746Z,1.27
2023-03-26T13:44:43.811Z,0.77
2023-03-26T13:47:16.829Z,1.30
2023-03-26T13:50:01.933Z,0.90
2023-03-26T13:53:12.591Z,1.10
2023-03-26T13:56:01.819Z,1.15
2023-03-26T13:59:18.212Z,1.30
2023-03-26T14:01:57.258Z,1.00
2023-03-26T14:04:33.923Z,1.00
2023-03-26T14:07:15.835Z,1.10
2023-03-26T14:10:29.276Z,1.90
2023-03-26T14:13:21.807Z,1.00
2023-03-26T14:16:09.850Z,1.25
2023-03-26T14:18:49.888Z,0.93
2023-03-26T14:22:03.716Z,1.00
2023-03-26T14:27:57.529Z,1.40
2023-03-26T14:30:27.159Z,0.80
2023-03-26T14:33:27.309Z,0.95
2023-03-26T14:36:47.205Z,0.88
2023-03-26T14:39:51.774Z,0.82
2023-03-26T14:42:22.217Z,1.25
2023-03-26T14:45:25.726Z,0.35
2023-03-26T14:48:28.019Z,1.10
2023-03-26T14:51:32.280Z,1.00
2023-03-26T14:54:29.223Z,1.00
2023-03-26T14:57:41.429Z,0.65
2023-03-26T15:04:20.256Z,0.80
2023-03-26T15:07:18.017Z,0.70
2023-03-26T15:10:12.108Z,1.00
2023-03-26T15:17:00.206Z,1.67
2023-03-26T15:20:17.439Z,1.33
2023-03-26T15:23:08.483Z,0.68
2023-03-26T15:25:56.744Z,1.00
2023-03-26T15:29:26.297Z,1.90
2023-03-26T15:31:59.037Z,0.95
2023-03-26T15:34:56.742Z,1.08
2023-03-26T15:37:42.031Z,1.05
2023-03-26T15:40:31.173Z,1.02
2023-03-26T15:43:03.966Z,0.90
2023-03-26T15:45:35.694Z,1.42
2023-03-26T15:48:56.645Z,0.50
2023-03-26T15:51:47.192Z,0.60
2023-03-26T15:54:35.734Z,1.15
2023-03-26T15:57:25.411Z,1.48
2023-03-26T16:00:13.409Z,1.23
2023-03-26T16:03:09.794Z,1.00
2023-03-26T16:06:18.887Z,1.05
2023-03-26T16:09:24.703Z,1.38
2023-03-26T16:12:00.673Z,1.10
2023-03-26T16:14:48.354Z,1.35
2023-03-26T16:17:23.410Z,2.20
2023-03-26T16:20:31.565Z,2.50
2023-03-26T16:23:07.064Z,0.75
2023-03-26T16:25:52.829Z,1.42
2023-03-26T16:28:30.724Z,0.75
2023-03-26T16:31:37.063Z,1.75
2023-03-26T16:34:23.496Z,2.70
2023-03-26T16:37:52.799Z,2.30
2023-03-26T16:40:52.127Z,1.75
2023-03-26T16:43:44.801Z,1.35
2023-03-26T16:46:43.724Z,1.45
2023-03-26T16:49:19.399Z,1.13
2023-03-26T16:52:03.564Z,1.35
2023-03-26T16:55:05.426Z,4.03
2023-03-26T17:00:25.307Z,2.85
2023-03-26T17:03:15.545Z,1.98
2023-03-26T17:05:56.843Z,2.42
2023-03-26T17:08:43.367Z,2.15
2023-03-26T17:11:27.683Z,1.35
2023-03-26T17:14:18.345Z,1.20
2023-03-26T17:17:03.355Z,1.30
2023-03-26T17:19:45.944Z,1.35
2023-03-26T17:22:38.918Z,1.40
2023-03-26T17:25:36.219Z,1.73
2023-03-26T17:28:42.112Z,1.25
2023-03-26T17:31:19.342Z,1.13
2023-03-26T17:33:47.987Z,1.17
2023-03-26T17:36:28.146Z,1.00
2023-03-26T17:39:18.594Z,1.05
2023-03-26T17:41:55.738Z,1.30
2023-03-26T17:44:57.574Z,5.55
2023-03-26T17:47:59.910Z,1.98
2023-03-26T17:50:34.738Z,1.88
2023-03-26T17:53:32.265Z,0.65
2023-03-26T17:56:03.894Z,1.33
2023-03-26T17:58:47.314Z,2.03
2023-03-26T18:01:36.217Z,2.42
2023-03-26T18:04:18.745Z,2.00
2023-03-26T18:06:52.054Z,0.88
2023-03-26T18:09:46.017Z,1.63
2023-03-26T18:12:48.388Z,1.40
2023-03-26T18:15:56.733Z,1.40
2023-03-26T18:18:28.994Z,1.35
2023-03-26T18:21:03.620Z,1.70
2023-03-26T18:23:39.044Z,1.42
2023-03-26T18:26:19.933Z,3.80
2023-03-26T18:28:53.118Z,2.08
2023-03-26T18:31:27.059Z,1.60
2023-03-26T18:34:03.205Z,1.30
2023-03-26T18:36:31.026Z,0.80
2023-03-26T18:39:03.542Z,0.90
2023-03-26T18:41:39.306Z,1.67
2023-03-26T18:44:13.366Z,1.02
2023-03-26T18:46:40.730Z,1.48
2023-03-26T18:49:10.530Z,2.03
2023-03-26T18:51:46.344Z,1.42
2023-03-26T18:54:21.816Z,1.02
2023-03-26T18:56:50.304Z,1.40
2023-03-26T18:59:41.360Z,1.33
2023-03-26T19:02:14.635Z,1.20
2023-03-26T19:04:46.682Z,1.30
2023-03-26T19:07:16.836Z,1.75
2023-03-26T19:09:45.015Z,2.03
2023-03-26T19:12:23.000Z,3.42
2023-03-26T19:15:13.448Z,3.05
2023-03-26T19:17:48.787Z,1.55
2023-03-26T19:20:22.595Z,1.48
2023-03-26T19:22:50.678Z,1.80
2023-03-26T19:25:25.529Z,1.60
2023-03-26T19:27:52.662Z,1.98
2023-03-26T19:30:41.157Z,0.88
2023-03-26T19:33:18.449Z,1.30
2023-03-26T19:35:50.991Z,1.35
2023-03-26T19:38:29.248Z,1.50
2023-03-26T19:40:58.078Z,1.45
2023-03-26T19:43:34.951Z,1.02
2023-03-26T19:46:09.430Z,0.90
2023-03-26T19:51:18.793Z,0.77
2023-03-26T19:51:35.801Z,1.25
2023-03-26T19:54:19.974Z,1.33
2023-03-26T19:56:50.945Z,1.05
2023-03-26T19:59:20.290Z,1.25
2023-03-26T20:01:48.256Z,0.80
2023-03-26T20:04:15.050Z,1.67
2023-03-26T20:06:44.176Z,1.27
2023-03-26T20:09:16.883Z,1.38
2023-03-26T20:11:43.848Z,0.80
2023-03-26T20:14:26.443Z,0.68
2023-03-26T20:16:53.784Z,0.93
2023-03-26T20:19:20.943Z,0.85
2023-03-26T20:21:47.793Z,0.70
2023-03-26T20:24:17.390Z,0.70
2023-03-26T20:26:45.949Z,0.90
2023-03-26T20:29:13.887Z,0.85
2023-03-26T20:31:42.107Z,1.02
2023-03-26T20:34:22.198Z,1.25
2023-03-26T20:36:55.255Z,0.82
2023-03-26T20:39:24.884Z,1.40
2023-03-26T20:41:54.958Z,1.00
2023-03-26T20:44:22.556Z,0.93
2023-03-26T20:46:50.362Z,0.75
2023-03-26T20:49:18.461Z,0.77
2023-03-26T20:51:47.073Z,3.25
2023-03-26T20:54:19.653Z,2.35
2023-03-26T20:56:47.963Z,0.80
2023-03-26T20:59:26.695Z,0.98
2023-03-26T21:01:56.775Z,0.80
2023-03-26T21:04:25.013Z,0.65
2023-03-26T21:06:55.358Z,1.25
2023-03-26T21:09:35.432Z,1.23
2023-03-26T21:12:06.518Z,0.93
2023-03-26T21:14:44.220Z,0.90
2023-03-26T21:17:29.654Z,1.00
2023-03-26T21:19:57.650Z,0.98
2023-03-26T21:22:30.399Z,0.90
2023-03-26T21:25:25.791Z,1.20
2023-03-26T21:28:12.890Z,1.20
2023-03-26T21:30:40.071Z,0.88
2023-03-26T21:33:07.737Z,0.80
2023-03-26T21:35:35.049Z,0.60
2023-03-26T21:38:04.788Z,1.33
2023-03-26T21:40:31.739Z,1.00
2023-03-26T21:42:58.815Z,0.82
2023-03-26T21:45:26.983Z,0.90
2023-03-26T21:47:54.383Z,1.00
2023-03-26T21:50:23.717Z,0.90
2023-03-26T21:52:51.944Z,1.00
2023-03-26T21:55:23.496Z,1.02
2023-03-26T21:58:32.834Z,1.55
2023-03-26T22:01:12.998Z,1.20
2023-03-26T22:04:10.891Z,1.00
2023-03-26T22:06:44.340Z,0.95
2023-03-26T22:09:12.833Z,1.40
2023-03-26T22:11:42.177Z,1.50
2023-03-26T22:14:09.337Z,1.00
2023-03-26T22:16:36.353Z,0.93
2023-03-26T22:19:03.173Z,1.73
2023-03-26T22:21:30.661Z,1.02
2023-03-26T22:23:57.648Z,1.02
2023-03-26T22:26:26.066Z,1.00
2023-03-26T22:28:53.414Z,0.57
2023-03-26T22:31:20.405Z,0.77
2023-03-26T22:33:47.373Z,1.23
2023-03-26T22:36:23.472Z,0.45
2023-03-26T22:38:54.104Z,1.20
2023-03-26T22:41:21.788Z,1.40
2023-03-26T22:43:53.238Z,0.93
2023-03-26T22:46:20.900Z,0.77
2023-03-26T22:48:51.542Z,0.52
2023-03-26T22:51:19.009Z,0.60
2023-03-26T22:53:45.989Z,0.57
2023-03-26T22:56:14.402Z,0.32
2023-03-26T22:58:41.615Z,0.57
2023-03-26T23:01:13.064Z,1.15
2023-03-26T23:03:40.092Z,0.40
2023-03-26T23:06:09.816Z,0.50
2023-03-26T23:08:38.149Z,0.88
2023-03-26T23:11:13.263Z,0.65
2023-03-26T23:13:40.896Z,0.60
2023-03-26T23:16:10.287Z,0.80
2023-03-26T23:18:38.016Z,0.82
2023-03-26T23:21:11.941Z,0.73
2023-03-26T23:23:40.022Z,0.63
2023-03-26T23:26:10.024Z,0.73
2023-03-26T23:28:38.377Z,0.68
2023-03-26T23:31:07.914Z,0.57
2023-03-26T23:33:37.356Z,1.63
2023-03-26T23:36:09.196Z,0.60
2023-03-26T23:41:15.185Z,0.57
2023-03-26T23:43:53.866Z,0.60
2023-03-26T23:46:24.599Z,0.50
2023-03-26T23:48:51.992Z,0.52
2023-03-26T23:51:20.281Z,0.50
2023-03-26T23:53:49.483Z,1.17
2023-03-26T23:56:18.500Z,0.77
2023-03-26T23:58:48.430Z,0.90
